createdAt,value
2022-12-12T00:06:44.510Z,78.4
2022-12-12T00:21:59.821Z,78.9
2022-12-12T00:37:09.603Z,78.3
2022-12-12T00:52:19.106Z,78.2
2022-12-12T01:07:30.693Z,78.2
2022-12-12T01:22:40.420Z,78.4
2022-12-12T01:37:51.316Z,78.3
2022-12-12T01:53:00.273Z,78.3
2022-12-12T02:08:09.881Z,78.3
2022-12-12T02:23:19.298Z,78.2
2022-12-12T02:38:31.672Z,78.1
2022-12-12T02:53:41.174Z,78.2
2022-12-12T03:08:51.381Z,78.2
2022-12-12T03:24:00.589Z,78.3
2022-12-12T03:39:10.234Z,78.3
2022-12-12T03:54:19.759Z,78.3
2022-12-12T04:09:30.369Z,78.2
2022-12-12T04:24:39.693Z,78.2
2022-12-12T04:39:49.400Z,78.3
2022-12-12T04:54:58.980Z,78.3
2022-12-12T05:10:08.478Z,78.1
2022-12-12T05:25:18.223Z,78.2
2022-12-12T05:40:28.538Z,78.2
2022-12-12T05:55:37.919Z,78.2
2022-12-12T06:10:47.875Z,78.2
2022-12-12T06:25:57.428Z,78.3
2022-12-12T06:41:06.848Z,78.2
2022-12-12T06:56:16.479Z,78.2
2022-12-12T07:11:26.368Z,78.2
2022-12-12T07:26:35.676Z,78.1
2022-12-12T07:41:45.208Z,78
2022-12-12T07:56:56.331Z,78
2022-12-12T08:12:06.220Z,78
2022-12-12T08:27:16.491Z,77.8
2022-12-12T08:42:26.131Z,77.7
2022-12-12T08:57:36.176Z,77.6
2022-12-12T09:12:46.133Z,77.5
2022-12-12T09:27:55.697Z,77.4
2022-12-12T09:43:05.507Z,77.4
2022-12-12T09:58:15.139Z,77.4
2022-12-12T10:13:24.897Z,77.1
2022-12-12T10:28:34.820Z,77.2
2022-12-12T10:43:44.151Z,77
2022-12-12T10:58:53.567Z,76.9
2022-12-12T11:14:03.362Z,76.8
2022-12-12T11:29:13.263Z,76.8
2022-12-12T11:44:22.713Z,76.7
2022-12-12T11:59:32.766Z,76.3
2022-12-12T12:14:42.695Z,76.2
2022-12-12T12:29:52.182Z,75.9
2022-12-12T12:45:02.729Z,75.7
2022-12-12T13:00:14.786Z,75.6
2022-12-12T13:15:25.230Z,75.7
2022-12-12T13:30:35.891Z,76
2022-12-12T13:45:45.415Z,76.5
2022-12-12T14:00:55.251Z,76.9
2022-12-12T14:16:05.529Z,76.2
2022-12-12T14:31:15.606Z,76.3
2022-12-12T14:46:25.773Z,76.9
2022-12-12T15:01:34.888Z,77
2022-12-12T15:16:49.426Z,77.2
2022-12-12T15:31:59.890Z,77.3
2022-12-12T15:47:09.296Z,77.5
2022-12-12T16:02:18.758Z,77.7
2022-12-12T16:17:27.830Z,78.5
2022-12-12T16:32:37.146Z,77.7
2022-12-12T16:47:46.618Z,78
2022-12-12T17:02:56.199Z,78.1
2022-12-12T17:18:05.045Z,78.1
2022-12-12T17:33:17.262Z,78.2
2022-12-12T17:48:26.441Z,78.3
2022-12-12T18:03:36.510Z,78.3
2022-12-12T18:18:45.892Z,78.4
2022-12-12T18:33:55.290Z,78.4
2022-12-12T18:49:04.563Z,78.5
2022-12-12T19:04:24.175Z,78.5
2022-12-12T19:19:34.027Z,78.6
2022-12-12T19:34:43.336Z,78.6
2022-12-12T19:49:52.701Z,78.7
2022-12-12T20:05:01.790Z,78.7
2022-12-12T20:20:13.861Z,78.6
2022-12-12T20:35:23.804Z,79.1
2022-12-12T20:50:32.651Z,78.6
2022-12-12T21:05:41.601Z,78.6
2022-12-12T21:20:50.899Z,78.7
2022-12-12T21:36:00.866Z,78.8
2022-12-12T21:51:10.176Z,78.8
2022-12-12T22:06:19.632Z,78.9
2022-12-12T22:21:32.998Z,78.8
2022-12-12T22:36:42.627Z,78.9
2022-12-12T22:51:52.230Z,78.9
2022-12-12T23:07:01.223Z,78.9
2022-12-12T23:22:10.293Z,80
2022-12-12T23:37:19.736Z,78.8
2022-12-12T23:52:29.114Z,78.5
